• Join FlightAware (Why Join?)
  • Login
  • US Flag 
04:08AM EDT


 

Airport Tracker/Info


-or-


 

Live Flight TrackerFlight Track Log ✈ DAL6140 ✈ 15-Apr-2013 ✈ KLGA - CYUL

Flight Track Log - Related Links

Times and Time Zones

All times are in EDT time to prevent confusion due to time zone crossing. See the DAL6140 flight status page for this flight to view local times or setup timezone preferences in your user account.

Time Position Orientation Groundspeed Altitude Reporting Facility
EDT Latitude Longitude Course Direction KTS MPH feet Rate Location/Type
03:46PM 40.7333 -73.8333 33° Northeast 167 192 2,400  Level New York TRACON
03:47PM 40.7667 -73.7833 49° Northeast 225 259 4,400 2,100 Climbing New York TRACON
03:49PM 40.8928 -73.6947 28° Northeast 284 327 8,900 2,160 Climbing Boston Center
03:50PM 40.9664 -73.6494 25° Northeast 284 327 11,000 1,860 Climbing Boston Center
03:51PM 41.2064 -73.5195 33° Northeast  Level FlightAware Approximate
03:51PM 41.0439 -73.5958 28° Northeast 292 336 12,700  Level Boston Center
03:52PM 41.1383 -73.5397 24° Northeast 320 368 14,700 1,800 Climbing Boston Center
03:53PM 41.2139 -73.4858 28° Northeast 335 386 16,300 1,560 Climbing Boston Center
03:54PM 41.3103 -73.4239 26° Northeast 347 399 17,900 1,560 Climbing Boston Center
03:55PM 41.3961 -73.3725 24° Northeast 347 399 19,500 1,800 Climbing Boston Center
03:56PM 41.4819 -73.3186 25° Northeast 342 394 21,600 2,160 Climbing Boston Center
03:57PM 41.5717 -73.3225 358° North 322 371 23,900 1,680 Climbing Boston Center
03:58PM 41.6633 -73.3292 357° North 317 365 25,000 540 Climbing Boston Center
03:59PM 41.7675 -73.3364 357° North 335 386 25,000  Level Boston Center
04:00PM 41.8778 -73.3433 357° North 373 429 25,000  Level Boston Center
04:01PM 41.9944 -73.3508 357° North 400 460 25,000  Level Boston Center
04:02PM 42.1153 -73.3525 359° North 415 478 25,000  Level Boston Center
04:03PM 42.2342 -73.3597 357° North 423 487 25,000  Level Boston Center
04:04PM 42.3528 -73.3728 355° North 423 487 25,000  Level Boston Center
04:05PM 42.4736 -73.3831 356° North 423 487 25,000  Level Boston Center
04:06PM 42.6047 -73.3906 358° North 423 487 25,000  Level Boston Center
04:07PM 42.7236 -73.3981 357° North 423 487 25,000  Level Boston Center
04:08PM 42.8444 -73.4056 357° North 423 487 25,000  Level Boston Center
04:09PM 42.9589 -73.4103 358° North 417 480 25,000  Level Boston Center
04:10PM 43.0797 -73.4150 358° North 424 488 25,000  Level Boston Center
04:11PM 43.1903 -73.4225 357° North 429 494 25,000  Level Boston Center
04:12PM 43.3131 -73.4331 356° North 434 499 25,000  Level Boston Center
04:13PM 43.4319 -73.4378 358° North 434 499 25,000  Level Boston Center
04:14PM 43.5547 -73.4486 356° North 434 499 25,000  Level Boston Center
04:15PM 43.6881 -73.4594 357° North 440 506 25,000  Level Boston Center
04:16PM 43.7983 -73.4642 358° North 440 506 25,000  Level Boston Center
04:17PM 43.9192 -73.4719 357° North 440 506 25,000  Level Boston Center
04:18PM 44.0419 -73.4797 357° North 440 506 25,000  Level Boston Center
04:19PM 44.1628 -73.4878 357° North 440 506 25,000 -600 Level Boston Center
04:20PM 44.2836 -73.4956 357° North 440 506 23,800 -1,560 Descending Boston Center
04:21PM 44.4003 -73.5036 357° North 434 499 21,900 -2,040 Descending Boston Center
04:22PM 44.5125 -73.5114 357° North 416 479 19,800 -2,040 Descending Boston Center
04:23PM 44.6208 -73.5219 356° North 397 457 18,000 -1,980 Descending Boston Center
04:24PM 44.7311 -73.5300 357° North 397 457 15,900 -2,100 Descending Boston Center
04:25PM 44.8436 -73.5408 356° North 381 438 13,800 -1,980 Descending Boston Center
04:26PM 44.9456 -73.5544 355° North 376 433 11,900 -1,920 Descending Boston Center
04:26PM 44.9833 -73.5500 North 360 414 11,400 -1,080 Descending Montreal Center
04:27PM 45.0667 -73.5500 360° North 330 380 10,600 -900 Descending Montreal Center
04:28PM 45.1500 -73.5667 352° North 280 322 9,600 -1,080 Descending Montreal Center
04:29PM 45.2167 -73.5667 360° North 250 288 8,500 -840 Descending Montreal Center
04:30PM 45.2833 -73.5833 350° North 270 311 8,000 -600 Descending Montreal Center
04:31PM 45.3667 -73.5833 360° North 260 299 7,300 -900 Descending Montreal Center
04:32PM 45.4333 -73.5500 19° North 250 288 6,300 -1,020 Descending Montreal Center
04:33PM 45.4833 -73.5000 35° Northeast 260 299 5,300 -1,200 Descending Montreal Center
04:34PM 45.5500 -73.4500 28° Northeast 250 288 4,000 -900 Descending Montreal Center
04:35PM 45.6167 -73.4833 341° North 230 265 3,500 -540 Descending Montreal Center
04:36PM 45.6333 -73.5500 290° West 180 207 3,000 -300 Descending Montreal Center
04:37PM 45.5833 -73.5667 193° South 170 196 3,000 -360 Level Montreal Center
04:38PM 45.5500 -73.6167 226° Southwest 170 196 2,300 -720 Descending Montreal Center
04:39PM 45.5167 -73.6667 226° Southwest 140 161 1,600 -780 Descending Montreal Center
04:40PM 45.5000 -73.7000 235° Southwest 150 173 800 -720 Descending Montreal Center
04:41PM 45.4667 -73.7500 226° Southwest 120 138 200 -360 Descending Montreal Center
04:42PM 45.4500 -73.7500 180° South 30 35 100 -120 Descending Montreal Center